Latest Weather Observations for Cooktown

IDQ60801

Issued at 6:31 am EST Wednesday 2 September 2015 (issued every 30 minutes, with the page automatically refreshed every 10 minutes)

About weather observations | Map of weather stations | Latest weather observations for QLD | Other Formats
Station Details ID: 031209 Name: COOKTOWN AIRPORT Lat: -15.45 Lon: 145.19 Height: 4.8 m
Data from the previous 72 hours. | See also: Recent months at Cooktown
Date/Time
EST
Temp
°C
App
Temp
°C
Dew
Point
Rel
Hum
%
Delta-T
°C
Wind Press
QNH
hPa
Press
MSL
hPa
Rain
since 9 am
mm
Dir
 
Spd
km/h
Gust
km/h
Spd
kts
Gust
kts
02/06:30am 19.2 21.1 18.6 96 0.4 WNW 6 7 3 4 1017.2 - 0.0
02/06:17am 19.5 22.6 18.7 95 0.5 CALM 0 4 0 2 1017.0 - 0.0
02/06:00am 19.3 21.1 18.7 96 0.4 WNW 7 9 4 5 1016.7 1016.6 0.0
02/05:55am 19.3 21.1 18.7 96 0.4 WNW 7 7 4 4 1016.6 - 0.0
02/05:50am 19.4 21.4 18.8 96 0.4 WNW 6 7 3 4 1016.6 - 0.0
02/05:30am 19.4 22.2 18.8 96 0.4 WNW 2 6 1 3 1016.2 - 0.0
02/05:00am 18.9 21.8 18.3 96 0.4 CALM 0 4 0 2 1015.7 - 0.0
02/04:30am 19.1 22.0 18.3 95 0.5 CALM 0 6 0 3 1015.6 - 0.0
02/04:18am 18.9 21.5 18.3 96 0.4 NW 2 7 1 4 1015.5 - 0.0
02/04:00am 19.1 22.1 18.5 96 0.4 CALM 0 0 0 0 1015.6 - 0.0
02/03:42am 19.3 21.7 18.7 96 0.4 NW 4 11 2 6 1015.8 - 0.0
02/03:30am 19.6 22.0 18.8 95 0.5 WNW 4 7 2 4 1015.8 - 0.0
02/03:15am 19.6 21.4 18.8 95 0.5 WNW 7 7 4 4 1015.8 - 0.0
02/03:00am 19.7 22.6 19.1 96 0.4 WNW 2 7 1 4 1015.8 1015.7 0.0
02/02:33am 19.9 21.9 19.1 95 0.5 WNW 7 9 4 5 1015.8 - 0.0
02/02:30am 20.0 22.2 19.2 95 0.5 WNW 6 9 3 5 1015.8 - 0.0
02/02:00am 19.8 22.8 19.2 96 0.4 W 2 7 1 4 1015.8 - 0.0
02/01:30am 19.5 21.6 18.9 96 0.4 WNW 6 9 3 5 1015.9 - 0.0
02/01:29am 19.6 21.5 19.0 96 0.4 WNW 7 9 4 5 1015.9 - 0.0
02/01:00am 19.5 22.6 18.7 95 0.5 CALM 0 0 0 0 1016.1 - 0.0
02/12:30am 20.0 23.4 19.4 96 0.4 CALM 0 0 0 0 1016.0 - 0.0
02/12:00am 20.3 22.6 19.5 95 0.5 WNW 6 6 3 3 1016.3 1016.2 0.0
 
Date/Time
EST
Temp
°C
App
Temp
°C
Dew
Point
Rel
Hum
%
Delta-T
°C
Wind Press
QNH
hPa
Press
MSL
hPa
Rain
since 9 am
mm
Dir
 
Spd
km/h
Gust
km/h
Spd
kts
Gust
kts
01/11:30pm 20.4 23.2 19.6 95 0.5 W 4 7 2 4 1016.3 - 0.0
01/11:00pm 20.2 23.5 19.2 94 0.6 CALM 0 0 0 0 1016.3 - 0.0
01/10:56pm 20.2 23.6 19.4 95 0.5 CALM 0 0 0 0 1016.3 - 0.0
01/10:38pm 20.5 23.6 19.6 95 0.6 WSW 2 6 1 3 1016.2 - 0.0
01/10:30pm 20.9 23.5 20.0 95 0.6 W 6 7 3 4 1016.1 - 0.0
01/10:08pm 20.5 23.2 19.4 93 0.7 WNW 4 7 2 4 1015.9 - 0.0
01/10:00pm 20.9 23.8 19.8 93 0.7 WNW 4 6 2 3 1015.9 - 0.0
01/09:33pm 21.4 25.1 20.0 92 0.9 CALM 0 0 0 0 1015.8 - 0.0
01/09:30pm 21.8 25.7 20.4 92 0.9 CALM 0 0 0 0 1015.7 - 0.0
01/09:00pm 22.5 25.1 20.5 88 1.3 ENE 7 9 4 5 1015.4 1015.3 0.0
01/08:30pm 22.6 25.3 20.6 88 1.3 ENE 7 11 4 6 1015.0 - 0.0
01/08:23pm 22.2 25.8 20.5 90 1.1 ENE 2 7 1 4 1014.9 - 0.0
01/08:00pm 22.4 25.2 20.4 88 1.3 ENE 6 9 3 5 1014.7 - 0.0
01/07:54pm 22.5 25.3 20.5 88 1.3 ENE 6 7 3 4 1014.6 - 0.0
01/07:30pm 22.4 25.0 20.4 88 1.3 E 7 11 4 6 1014.3 - 0.0
01/07:00pm 22.9 24.7 20.4 86 1.6 E 11 13 6 7 1013.7 - 0.0
01/06:30pm 23.2 25.0 20.3 84 1.9 E 11 15 6 8 1013.6 - 0.0
01/06:00pm 24.4 25.7 20.1 77 2.8 ENE 13 17 7 9 1013.6 1013.5 0.0
01/05:30pm 25.2 25.7 20.1 73 3.3 ENE 17 22 9 12 1013.4 - 0.0
01/05:00pm 25.6 25.1 19.0 67 4.2 E 20 26 11 14 1013.3 - 0.0
01/04:30pm 26.7 26.8 19.9 66 4.4 ENE 19 26 10 14 1013.1 - 0.0
01/04:00pm 26.8 26.2 19.7 65 4.6 E 22 28 12 15 1013.1 - 0.0
01/03:30pm 26.8 26.1 19.5 64 4.7 ENE 22 30 12 16 1013.1 - 0.0
01/03:00pm 27.4 27.4 20.1 64 4.8 ENE 20 32 11 17 1013.3 1013.2 0.0
01/02:30pm 27.4 26.3 19.5 62 5.1 E 24 32 13 17 1013.6 - 0.0
01/02:00pm 27.6 26.3 19.1 59 5.5 E 24 33 13 18 1014.0 - 0.0
01/01:30pm 27.9 27.0 19.1 58 5.7 E 22 30 12 16 1014.6 - 0.0
01/01:00pm 28.6 27.5 18.6 54 6.4 ENE 22 30 12 16 1015.0 - 0.0
01/12:30pm 27.7 27.0 18.6 57 5.8 E 20 26 11 14 1015.5 - 0.0
01/12:00pm 27.7 27.1 18.8 58 5.7 E 20 28 11 15 1015.9 1015.8 0.0
01/11:30am 27.6 27.1 19.1 59 5.5 E 20 26 11 14 1016.5 - 0.0
01/11:00am 27.4 27.1 18.3 57 5.8 ENE 17 22 9 12 1016.9 - 0.0
01/10:30am 27.2 27.3 19.1 61 5.2 E 17 24 9 13 1017.2 - 0.0
01/10:00am 26.8 27.1 19.7 65 4.6 E 17 22 9 12 1017.5 - 0.0
01/09:30am 25.9 26.3 19.0 65 4.4 E 15 20 8 11 1017.5 - 0.0
01/09:00am 25.6 28.4 20.4 73 3.4 E 6 9 3 5 1017.2 1017.0 0.0
01/08:30am 23.1 27.1 20.6 86 1.6 CALM 0 0 0 0 1017.0 - 0.0
01/08:00am 21.3 25.0 19.9 92 0.9 CALM 0 0 0 0 1016.7 - 0.0
01/07:30am 20.4 23.9 19.6 95 0.5 CALM 0 0 0 0 1016.4 - 0.0
01/07:00am 19.8 22.8 19.2 96 0.4 W 2 6 1 3 1016.1 - 0.0
01/06:30am 19.6 21.7 19.0 96 0.4 WNW 6 7 3 4 1015.6 - 0.0
01/06:00am 19.8 23.1 19.0 95 0.5 CALM 0 0 0 0 1015.2 1015.1 0.0
01/05:30am 19.7 22.9 18.9 95 0.5 CALM 0 0 0 0 1014.8 - 0.0
01/05:00am 19.8 22.3 19.0 95 0.5 WNW 4 7 2 4 1014.6 - 0.0
01/04:30am 19.8 23.1 19.2 96 0.4 CALM 0 6 0 3 1014.3 - 0.0
01/04:10am 19.5 21.9 18.7 95 0.5 WNW 4 6 2 3 1014.3 - 0.0
01/04:00am 19.4 21.3 18.6 95 0.5 WNW 6 7 3 4 1014.3 - 0.0
01/03:48am 19.1 21.0 18.5 96 0.4 NW 6 6 3 3 1014.4 - 0.0
01/03:44am 19.0 21.1 18.2 95 0.5 NW 4 6 2 3 1014.4 - 0.0
01/03:30am 19.0 20.9 18.5 97 0.3 NW 6 7 3 4 1014.4 - 0.0
01/03:19am 19.0 20.8 18.4 96 0.4 WNW 6 7 3 4 1014.5 - 0.0
01/03:00am 19.0 20.8 18.4 96 0.4 WNW 6 7 3 4 1014.4 1014.3 0.0
01/02:30am 19.5 22.7 18.9 96 0.4 CALM 0 0 0 0 1014.5 - 0.0
01/02:00am 19.7 22.9 18.9 95 0.5 CALM 0 0 0 0 1014.7 - 0.0
01/01:46am 19.7 22.9 18.9 95 0.5 CALM 0 6 0 3 1014.8 - 0.0
01/01:30am 19.5 21.6 18.9 96 0.4 WNW 6 7 3 4 1015.0 - 0.0
01/01:00am 19.5 22.7 18.9 96 0.4 CALM 0 0 0 0 1015.3 - 0.0
01/12:30am 19.3 22.3 18.5 95 0.5 CALM 0 0 0 0 1015.3 - 0.0
01/12:00am 20.1 23.5 19.3 95 0.5 CALM 0 0 0 0 1015.5 1015.6 0.0
 
Date/Time
EST
Temp
°C
App
Temp
°C
Dew
Point
Rel
Hum
%
Delta-T
°C
Wind Press
QNH
hPa
Press
MSL
hPa
Rain
since 9 am
mm
Dir
 
Spd
km/h
Gust
km/h
Spd
kts
Gust
kts
31/11:30pm 19.9 23.3 19.3 96 0.4 CALM 0 0 0 0 1015.7 - 0.0
31/11:24pm 20.0 23.3 19.2 95 0.5 CALM 0 0 0 0 1015.8 - 0.0
31/11:09pm 20.7 24.3 19.8 95 0.6 CALM 0 0 0 0 1015.8 - 0.0
31/11:03pm 20.8 24.5 19.9 95 0.6 CALM 0 0 0 0 1015.8 - 0.0
31/11:00pm 20.9 24.5 19.8 93 0.7 CALM 0 0 0 0 1015.7 - 0.0
31/10:50pm 20.6 24.1 19.5 93 0.7 CALM 0 0 0 0 1015.7 - 0.0
31/10:40pm 20.8 24.4 19.7 93 0.7 CALM 0 0 0 0 1015.6 - 0.0
31/10:30pm 21.1 24.7 19.8 92 0.8 CALM 0 0 0 0 1015.6 - 0.0
31/10:22pm 21.2 24.9 19.9 92 0.8 CALM 0 0 0 0 1015.7 - 0.0
31/10:00pm 21.6 25.3 20.0 91 1.0 CALM 0 0 0 0 1015.6 - 0.0
31/09:30pm 22.3 24.9 20.0 87 1.5 E 6 7 3 4 1015.5 - 0.0
31/09:00pm 22.6 26.0 20.1 86 1.6 ENE 2 7 1 4 1015.3 1015.3 0.0
31/08:31pm 22.4 25.1 20.2 87 1.4 ENE 6 7 3 4 1015.0 - 0.0
31/08:30pm 22.5 25.2 20.2 87 1.5 ENE 6 7 3 4 1015.0 - 0.0
31/08:14pm 22.3 24.7 20.0 87 1.5 E 7 11 4 6 1014.9 - 0.0
31/08:00pm 22.4 25.0 20.1 87 1.5 ENE 6 7 3 4 1014.7 - 0.0
31/07:35pm 22.7 24.6 19.7 83 1.9 E 9 15 5 8 1014.4 - 0.0
31/07:30pm 22.7 24.7 19.9 84 1.8 E 9 11 5 6 1014.3 - 0.0
31/07:24pm 22.8 24.7 19.8 83 1.9 E 9 13 5 7 1014.2 - 0.0
31/07:00pm 23.2 25.3 20.1 83 2.0 ENE 9 13 5 7 1013.9 - 0.0
31/06:30pm 23.3 24.9 20.0 82 2.1 E 11 13 6 7 1013.6 - 0.0
31/06:00pm 24.0 24.3 19.6 76 2.8 E 17 20 9 11 1013.3 1013.3 0.0
31/05:30pm 24.9 24.8 19.6 72 3.4 ENE 19 24 10 13 1013.2 - 0.0
31/05:00pm 25.6 25.6 19.7 70 3.8 E 19 24 10 13 1013.0 - 0.0
31/04:30pm 26.1 25.6 18.7 63 4.7 ENE 19 24 10 13 1012.8 - 0.0
31/04:00pm 26.6 25.9 18.6 61 5.1 E 20 26 11 14 1012.7 - 0.0
31/03:30pm 26.8 26.6 19.4 64 4.8 E 19 26 10 14 1012.9 - 0.0
31/03:00pm 27.1 26.0 18.7 60 5.4 E 22 30 12 16 1013.1 1013.1 0.0
31/02:30pm 27.5 27.1 19.3 61 5.3 E 20 28 11 15 1013.5 - 0.0
31/02:00pm 27.4 27.1 19.5 62 5.1 E 20 28 11 15 1014.1 - 0.0
31/01:30pm 27.0 26.1 19.1 62 5.1 ENE 22 26 12 14 1014.6 - 0.0
31/01:00pm 27.0 26.3 19.4 63 4.9 ENE 22 30 12 16 1014.9 - 0.0
31/12:30pm 27.2 27.0 19.8 64 4.8 E 20 30 11 16 1015.2 - 0.0
31/12:00pm 27.1 26.4 19.4 62 5.0 ENE 22 32 12 17 1015.6 1015.6 0.0
31/11:30am 27.3 27.0 19.6 62 5.0 E 20 26 11 14 1016.0 - 0.0
31/11:25am 27.0 27.2 20.1 66 4.5 E 19 26 10 14 1016.1 - 0.0
31/11:00am 26.0 26.0 19.8 68 4.0 E 19 24 10 13 1016.5 - 0.0
31/10:42am 25.7 26.1 19.8 70 3.8 E 17 22 9 12 1016.8 - 0.0
31/10:30am 26.2 26.5 19.5 66 4.3 E 17 28 9 15 1016.8 - 0.0
31/10:00am 26.6 27.0 19.8 66 4.4 E 17 26 9 14 1016.9 - 0.0
31/09:30am 26.3 27.9 20.0 68 4.1 ENE 11 20 6 11 1016.9 - 0.0
31/09:00am 24.9 27.4 20.3 75 3.0 ESE 7 11 4 6 1016.7 1016.8 0.0
31/08:30am 23.2 26.1 20.6 85 1.7 WNW 6 9 3 5 1016.6 - 0.0
31/08:08am 21.8 25.0 20.4 92 0.9 W 4 7 2 4 1016.5 - 0.0
31/08:00am 21.4 24.1 20.3 93 0.7 WSW 6 7 3 4 1016.4 - 0.0
31/07:32am 20.4 24.0 19.8 96 0.4 CALM 0 0 0 0 1016.1 - 0.0
31/07:30am 20.4 23.9 19.6 95 0.5 CALM 0 0 0 0 1016.1 - 0.0
31/07:00am 19.3 22.1 18.8 97 0.3 W 2 6 1 3 1015.8 - 0.0
31/06:56am 19.2 21.6 18.7 97 0.3 W 4 6 2 3 1015.8 - 0.0
31/06:30am 18.8 21.0 18.3 97 0.3 W 4 7 2 4 1015.5 - 0.0
31/06:06am 18.1 20.4 17.6 97 0.3 WNW 2 7 1 4 1015.2 - 0.0
31/06:00am 17.9 19.1 17.4 97 0.3 WNW 7 7 4 4 1015.2 1015.1 0.0
31/05:48am 17.9 19.1 17.4 97 0.3 NW 7 9 4 5 1015.0 - 0.0
31/05:30am 17.6 18.2 16.9 96 0.4 NW 9 9 5 5 1014.7 - 0.0
31/05:21am 17.5 18.6 17.0 97 0.3 WNW 7 9 4 5 1014.6 - 0.0
31/05:00am 17.2 19.1 16.7 97 0.3 WNW 2 7 1 4 1014.4 - 0.0
31/04:30am 18.1 19.4 17.6 97 0.3 WNW 7 7 4 4 1014.2 - 0.0
31/04:00am 17.6 18.9 17.1 97 0.3 WNW 6 7 3 4 1014.2 - 0.0
31/03:30am 17.8 20.3 17.3 97 0.3 CALM 0 0 0 0 1014.3 - 0.0
31/03:00am 18.4 21.2 17.9 97 0.3 CALM 0 0 0 0 1014.3 1014.3 0.0
31/02:30am 18.8 21.7 18.2 96 0.4 CALM 0 0 0 0 1014.6 - 0.0
31/02:07am 19.0 22.0 18.4 96 0.4 CALM 0 0 0 0 1014.8 - 0.0
31/02:00am 18.8 21.6 18.0 95 0.5 CALM 0 0 0 0 1014.9 - 0.0
31/01:38am 18.6 21.3 17.8 95 0.5 CALM 0 0 0 0 1015.0 - 0.0
31/01:30am 18.7 21.5 18.0 96 0.4 CALM 0 0 0 0 1015.1 - 0.0
31/01:00am 18.9 21.8 18.3 96 0.4 CALM 0 0 0 0 1015.3 - 0.0
31/12:30am 19.1 22.0 18.3 95 0.5 CALM 0 0 0 0 1015.5 - 0.0
31/12:08am 19.5 22.6 18.7 95 0.5 CALM 0 0 0 0 1015.6 - 0.0
31/12:00am 19.7 22.9 18.9 95 0.5 CALM 0 0 0 0 1015.7 1015.8 0.0
 
Date/Time
EST
Temp
°C
App
Temp
°C
Dew
Point
Rel
Hum
%
Delta-T
°C
Wind Press
QNH
hPa
Press
MSL
hPa
Rain
since 9 am
mm
Dir
 
Spd
km/h
Gust
km/h
Spd
kts
Gust
kts
30/11:30pm 19.9 23.2 19.1 95 0.5 CALM 0 0 0 0 1015.9 - 0.0
30/11:27pm 20.0 23.3 19.2 95 0.5 CALM 0 0 0 0 1015.9 - 0.0
30/11:00pm 20.0 23.4 19.4 96 0.4 CALM 0 0 0 0 1016.0 - 0.0
30/10:30pm 20.2 23.6 19.4 95 0.5 CALM 0 0 0 0 1016.0 - 0.0
30/10:00pm 20.5 24.0 19.6 95 0.6 CALM 0 0 0 0 1015.9 - 0.0
30/09:30pm 20.8 24.4 19.7 93 0.7 CALM 0 0 0 0 1015.9 - 0.0
30/09:00pm 21.7 25.4 20.0 90 1.1 CALM 0 0 0 0 1015.8 1015.8 0.0
30/08:30pm 21.9 25.7 20.2 90 1.1 CALM 0 0 0 0 1015.5 - 0.0
30/08:00pm 22.4 25.8 20.2 87 1.4 E 2 6 1 3 1015.1 - 0.0
30/07:58pm 22.4 25.5 20.2 87 1.4 E 4 6 2 3 1015.1 - 0.0
30/07:39pm 22.2 24.5 19.9 87 1.5 E 7 9 4 5 1014.8 - 0.0
30/07:30pm 22.5 24.9 20.0 86 1.6 E 7 9 4 5 1014.8 - 0.0
30/07:13pm 22.3 24.1 19.6 85 1.7 E 9 11 5 6 1014.7 - 0.0
30/07:00pm 22.6 25.0 20.0 85 1.7 E 7 9 4 5 1014.6 - 0.0
30/06:30pm 23.4 25.0 20.0 81 2.2 E 11 15 6 8 1014.3 - 0.0
30/06:00pm 23.9 25.0 20.5 81 2.2 E 15 20 8 11 1014.0 1014.0 0.0
30/05:50pm 24.1 25.3 20.6 81 2.3 E 15 22 8 12 1014.0 - 0.0
30/05:30pm 24.6 25.0 20.6 78 2.6 E 19 22 10 12 1013.8 - 0.0
30/05:00pm 25.3 25.5 20.2 73 3.3 E 19 26 10 14 1013.6 - 0.0
30/04:30pm 25.7 25.7 20.2 71 3.6 E 20 28 11 15 1013.6 - 0.0
30/04:00pm 26.0 25.1 19.8 68 4.0 E 24 30 13 16 1013.5 - 0.0
30/03:30pm 26.3 25.6 19.5 66 4.4 E 22 30 12 16 1013.6 - 0.0
30/03:00pm 26.6 25.6 18.8 62 5.0 E 22 30 12 16 1013.7 1013.7 0.0
30/02:30pm 27.4 26.7 19.4 61 5.2 E 22 30 12 16 1014.0 - 0.0
30/02:00pm 26.8 25.2 18.3 59 5.4 E 24 32 13 17 1014.4 - 0.0
30/01:30pm 26.7 25.5 19.2 63 4.8 E 24 30 13 16 1014.9 - 0.0
30/01:00pm 27.0 26.0 18.9 61 5.2 E 22 30 12 16 1015.4 - 0.0
30/12:30pm 27.0 25.8 18.5 59 5.4 E 22 32 12 17 1015.8 - 0.0
30/12:00pm 27.3 25.9 18.0 56 5.9 ENE 22 28 12 15 1016.2 1016.2 0.0
30/11:30am 26.8 26.0 18.1 59 5.5 E 19 28 10 15 1016.9 - 0.0
30/11:00am 27.4 26.8 18.5 58 5.7 E 19 26 10 14 1017.4 - 0.0
30/10:30am 26.8 26.4 18.8 61 5.1 E 19 26 10 14 1017.8 - 0.0
30/10:00am 25.8 25.6 18.6 64 4.6 E 17 22 9 12 1017.9 - 0.0
30/09:30am 24.7 26.9 19.7 73 3.2 ENE 7 13 4 7 1017.8 - 0.0
30/09:00am 23.5 27.3 20.1 81 2.2 CALM 0 0 0 0 1017.6 1017.6 0.0
30/08:30am 21.9 25.1 19.7 87 1.4 WNW 2 7 1 4 1017.4 - 0.0
30/08:00am 20.2 22.3 18.9 92 0.8 W 6 6 3 3 1017.1 - 0.0
30/07:30am 19.4 21.1 18.4 94 0.6 WNW 7 9 4 5 1016.8 - 0.0
30/07:23am 19.3 21.0 18.5 95 0.5 NW 7 9 4 5 1016.7 - 0.0
30/07:11am 18.9 20.5 18.3 96 0.4 NW 7 9 4 5 1016.6 - 0.0
30/07:00am 18.4 19.8 17.9 97 0.3 WNW 7 9 4 5 1016.3 - 0.0

Other Formats:

Comma delimited format used in spreadsheet applications
http://www.bom.gov.au/fwo/IDQ60801/IDQ60801.95283.axf

JavaScript Object Notation format (JSON) in row-major order
http://www.bom.gov.au/fwo/IDQ60801/IDQ60801.95283.json